Audubon, New Jersey
Current Conditions -  °F | °C
As of 3:24 AM on Monday 24 Nov 2014 (Local Time) from KPHL Reporting Station
Overcast Overcast  
Wind Chill: 64°   Ceiling: 1400
Heat Index: 64°   Visibility: 10mi
Dew Point: 59°   Wind: 24mph
Humidity: 84%   Direction: 170°S
Pressure: 29.71"   Gusts: 39mph
Location:  39.89°N, 75.09°W
Report Text: KPHL 240824Z 17021G34KT 10SM BKN014 OVC025 18/15 A2971 RMK AO2 PK WND 17034/0817 RAE17 P0004 T01780150 $
Loading
Personal Weather Stations






























Interactive Weather Map New forecast layout! Learn more

10-Day Weather Forecast

Advertisements
Track Severe Weather on mobile